Time;durP1;ratioP1;P1;durP2;ratioP2;P2;SDS_P1;SDS_P2;PMS_P1;PMS_P2;Temp;Humidity;BMP_temperature;BMP_pressure;BME280_temperature;BME280_humidity;BME280_pressure;Samples;Min_cycle;Max_cycle;Signal;HPM_P1;HPM_P2
2022/08/08 00:02:07;;;;;;;13.88;9.82;;;;;;;11.70;100.00;102381.03;6539258;22;20006;-80
2022/08/08 00:05:17;;;;;;;19.15;10.00;;;;;;;11.58;100.00;102386.44;6538848;22;20019;-80
2022/08/08 00:08:06;;;;;;;11.70;9.82;;;;;;;11.42;100.00;102384.03;6511302;22;19993;-80
2022/08/08 00:10:54;;;;;;;12.27;10.05;;;;;;;11.43;100.00;102389.25;6513663;22;20318;-80
2022/08/08 00:13:44;;;;;;;16.73;9.82;;;;;;;11.49;100.00;102388.81;6513772;22;20308;-80
2022/08/08 00:16:28;;;;;;;13.57;11.32;;;;;;;11.46;100.00;102390.84;6513246;22;20438;-80
2022/08/08 00:19:02;;;;;;;13.48;10.95;;;;;;;11.41;100.00;102383.16;6513771;22;20379;-80
2022/08/08 00:21:40;;;;;;;17.83;11.60;;;;;;;11.44;100.00;102388.28;6513055;22;20004;-80
2022/08/08 00:24:19;;;;;;;20.35;12.20;;;;;;;11.38;100.00;102395.88;6513963;22;20062;-80
2022/08/08 00:27:00;;;;;;;13.00;11.30;;;;;;;11.28;100.00;102396.53;6539207;22;20004;-80
2022/08/08 00:29:39;;;;;;;14.48;10.43;;;;;;;11.28;100.00;102398.38;6540829;22;20050;-80
2022/08/08 00:32:22;;;;;;;12.98;11.05;;;;;;;11.23;100.00;102396.00;6540074;22;20081;-80
2022/08/08 00:35:13;;;;;;;14.43;11.25;;;;;;;11.25;100.00;102398.56;6513105;22;20390;-81
2022/08/08 00:38:12;;;;;;;15.85;10.57;;;;;;;11.19;100.00;102407.88;6539694;22;20115;-81
2022/08/08 00:41:17;;;;;;;12.93;9.27;;;;;;;11.13;100.00;102400.28;6512878;22;20438;-81
2022/08/08 00:44:13;;;;;;;16.88;12.80;;;;;;;11.21;100.00;102400.59;6539489;22;20062;-81
2022/08/08 00:47:18;;;;;;;16.00;11.30;;;;;;;11.08;100.00;102399.75;6539440;22;19992;-80
2022/08/08 00:50:20;;;;;;;13.18;10.77;;;;;;;11.05;100.00;102403.50;6513033;22;20692;-80
2022/08/08 00:53:24;;;;;;;15.98;11.60;;;;;;;11.00;100.00;102392.28;6539322;22;20504;-80
2022/08/08 00:56:30;;;;;;;12.82;11.10;;;;;;;10.85;100.00;102390.69;6537100;22;20007;-80
2022/08/08 00:59:32;;;;;;;15.55;11.68;;;;;;;10.76;100.00;102385.03;6539830;22;20008;-80
2022/08/08 01:02:22;;;;;;;15.63;10.85;;;;;;;10.78;100.00;102380.44;6539965;22;19996;-80
2022/08/08 01:05:15;;;;;;;13.90;11.50;;;;;;;10.81;100.00;102394.53;6538927;22;27374;-80
2022/08/08 01:07:49;;;;;;;15.88;12.98;;;;;;;10.76;100.00;102387.72;6539354;22;20000;-80
2022/08/08 01:10:57;;;;;;;12.70;11.40;;;;;;;10.73;100.00;102390.59;6539478;22;20025;-80
2022/08/08 01:13:53;;;;;;;16.00;11.60;;;;;;;10.71;100.00;102394.31;6539960;22;20442;-80
2022/08/08 01:17:06;;;;;;;19.02;14.48;;;;;;;10.53;100.00;102389.25;6540072;22;20308;-79
2022/08/08 01:20:21;;;;;;;15.48;13.85;;;;;;;10.51;100.00;102385.84;6512649;22;20058;-80
2022/08/08 01:23:16;;;;;;;13.55;12.15;;;;;;;10.40;100.00;102393.75;6540270;22;20005;-80
2022/08/08 01:25:56;;;;;;;15.55;12.80;;;;;;;10.50;100.00;102386.84;6540197;22;20426;-78
2022/08/08 01:29:04;;;;;;;18.88;14.70;;;;;;;10.47;100.00;102387.03;6512878;22;19996;-80
2022/08/08 01:32:13;;;;;;;15.57;13.52;;;;;;;10.43;100.00;102385.53;6512586;22;20000;-80
2022/08/08 01:34:59;;;;;;;19.10;14.43;;;;;;;10.44;100.00;102383.72;6512426;22;20009;-80
2022/08/08 01:38:09;;;;;;;15.43;13.18;;;;;;;10.28;100.00;102384.72;6540003;22;20000;-80
2022/08/08 01:40:59;;;;;;;14.80;13.20;;;;;;;10.27;100.00;102379.47;6540022;22;20002;-80
2022/08/08 01:43:36;;;;;;;15.48;12.88;;;;;;;10.14;100.00;102382.13;6539338;22;20075;-81
2022/08/08 01:46:10;;;;;;;16.27;13.57;;;;;;;10.25;100.00;102378.72;6512947;22;20386;-79
2022/08/08 01:49:07;;;;;;;16.70;13.30;;;;;;;10.18;100.00;102381.78;6539714;22;20465;-79
2022/08/08 01:52:05;;;;;;;15.80;13.25;;;;;;;10.15;100.00;102384.69;6539203;22;20032;-80
2022/08/08 01:54:45;;;;;;;;;;;;;;;10.10;100.00;102384.13;6539118;22;20000;-80
2022/08/08 01:57:30;;;;;;;15.32;11.82;;;;;;;10.15;100.00;102392.69;6540177;22;19934;-80
2022/08/08 02:00:31;;;;;;;17.95;13.05;;;;;;;10.02;100.00;102389.94;6512775;22;19996;-81
2022/08/08 02:03:12;;;;;;;16.85;13.95;;;;;;;10.07;100.00;102396.81;6540062;22;20020;-81
2022/08/08 02:06:11;;;;;;;17.38;12.85;;;;;;;9.89;100.00;102398.84;6539686;22;20024;-80
2022/08/08 02:08:56;;;;;;;19.00;14.18;;;;;;;10.03;100.00;102396.16;6540122;22;20000;-80
2022/08/08 02:11:41;;;;;;;16.33;12.75;;;;;;;9.84;100.00;102396.50;6539788;22;20011;-81
2022/08/08 02:14:31;;;;;;;15.70;13.98;;;;;;;9.78;100.00;102402.22;6539957;22;20000;-81
2022/08/08 02:17:28;;;;;;;20.08;14.40;;;;;;;9.76;100.00;102394.31;6539869;22;20275;-80
2022/08/08 02:20:16;;;;;;;18.35;13.93;;;;;;;9.79;100.00;102387.94;6538773;22;19992;-79
2022/08/08 02:23:24;;;;;;;18.60;13.77;;;;;;;9.66;100.00;102395.91;6512989;22;20076;-80
2022/08/08 02:26:07;;;;;;;17.58;12.75;;;;;;;9.59;100.00;102394.56;6539442;22;20071;-82
2022/08/08 02:28:57;;;;;;;19.23;12.63;;;;;;;9.53;100.00;102397.63;6540448;22;19996;-82
2022/08/08 02:31:37;;;;;;;16.75;12.82;;;;;;;9.50;100.00;102389.81;6539548;22;20042;-81
2022/08/08 02:34:26;;;;;;;17.05;13.75;;;;;;;9.54;100.00;102389.53;6539203;22;20003;-81
2022/08/08 02:37:18;;;;;;;17.90;14.65;;;;;;;9.60;100.00;102388.28;6539653;22;19996;-80
2022/08/08 02:40:15;;;;;;;20.52;14.32;;;;;;;9.48;100.00;102395.25;6512553;22;19996;-81
2022/08/08 02:43:13;;;;;;;14.52;11.73;;;;;;;9.43;100.00;102389.34;6539246;22;20066;-81
2022/08/08 02:45:50;;;;;;;25.15;16.70;;;;;;;9.61;100.00;102401.50;6511607;22;20021;-80
2022/08/08 02:48:52;;;;;;;21.33;16.13;;;;;;;9.48;100.00;102389.91;6539807;22;19993;-80
2022/08/08 02:51:26;;;;;;;21.55;15.65;;;;;;;9.49;100.00;102394.28;6538777;22;20008;-80
2022/08/08 02:54:34;;;;;;;22.83;17.45;;;;;;;9.53;100.00;102392.28;6512553;22;20110;-80
2022/08/08 02:57:39;;;;;;;24.95;18.52;;;;;;;9.44;100.00;102402.56;6512032;22;20026;-80
2022/08/08 03:00:21;;;;;;;20.05;16.63;;;;;;;9.32;100.00;102389.19;6538704;22;20084;-80
2022/08/08 03:03:23;;;;;;;21.40;16.25;;;;;;;9.33;100.00;102398.91;6512856;22;20082;-79
2022/08/08 03:06:21;;;;;;;21.15;17.20;;;;;;;9.38;100.00;102404.75;6538371;22;20000;-80
2022/08/08 03:09:10;;;;;;;28.67;18.65;;;;;;;9.46;100.00;102405.97;6539100;22;20031;-81
2022/08/08 03:12:00;;;;;;;27.45;17.75;;;;;;;9.35;100.00;102396.97;6512627;22;20015;-78
2022/08/08 03:15:09;;;;;;;24.45;17.60;;;;;;;9.30;100.00;102409.72;6511101;22;20086;-81
2022/08/08 03:17:50;;;;;;;17.15;14.98;;;;;;;9.32;100.00;102402.50;6539138;22;20003;-80
2022/08/08 03:20:21;;;;;;;23.83;16.20;;;;;;;9.16;100.00;102398.13;6512261;22;19996;-81
2022/08/08 03:22:53;;;;;;;21.87;16.43;;;;;;;9.22;100.00;102408.41;6539161;22;20003;-79
2022/08/08 03:25:26;;;;;;;20.45;16.88;;;;;;;9.23;100.00;102398.59;6539210;22;19992;-80
2022/08/08 03:28:11;;;;;;;22.30;18.30;;;;;;;9.15;100.00;102400.88;6539659;22;20004;-80
2022/08/08 03:30:47;;;;;;;21.67;17.13;;;;;;;9.23;100.00;102409.25;6540050;22;20024;-80
2022/08/08 03:33:18;;;;;;;23.58;17.20;;;;;;;9.06;100.00;102407.63;6538805;22;20011;-80
2022/08/08 03:35:51;;;;;;;20.23;16.23;;;;;;;8.73;100.00;102413.19;6540174;22;20024;-81
2022/08/08 03:38:22;;;;;;;17.23;15.38;;;;;;;8.76;100.00;102408.53;6540230;22;20693;-81
2022/08/08 03:40:54;;;;;;;20.55;15.70;;;;;;;8.93;100.00;102415.50;6540592;22;19996;-80
2022/08/08 03:43:25;;;;;;;24.95;18.30;;;;;;;9.04;100.00;102420.16;6539459;22;20043;-80
2022/08/08 03:46:03;;;;;;;23.60;16.25;;;;;;;8.96;100.00;102411.78;6541114;22;20031;-80
2022/08/08 03:48:34;;;;;;;21.33;16.48;;;;;;;8.77;100.00;102407.59;6539108;22;19997;-81
2022/08/08 03:51:06;;;;;;;25.50;19.10;;;;;;;8.97;100.00;102414.34;6512647;22;20382;-80
2022/08/08 03:53:37;;;;;;;33.10;22.10;;;;;;;9.06;100.00;102412.94;6540910;22;20418;-80
2022/08/08 03:56:09;;;;;;;30.58;20.38;;;;;;;9.06;100.00;102416.47;6540213;22;20004;-80
2022/08/08 03:58:48;;;;;;;28.67;20.60;;;;;;;8.99;100.00;102422.25;6541155;22;19992;-81
2022/08/08 04:01:19;;;;;;;27.33;21.77;;;;;;;9.18;100.00;102422.00;6514072;22;19996;-80
2022/08/08 04:03:50;;;;;;;31.50;22.00;;;;;;;9.46;100.00;102429.97;6513890;22;20000;-81
2022/08/08 04:06:22;;;;;;;35.97;25.42;;;;;;;9.43;100.00;102426.63;6541369;22;20007;-80
2022/08/08 04:08:53;;;;;;;32.55;24.42;;;;;;;9.42;100.00;102428.44;6541117;22;20403;-80
2022/08/08 04:11:25;;;;;;;31.80;24.55;;;;;;;9.39;100.00;102439.28;6513644;22;20000;-81
2022/08/08 04:13:56;;;;;;;29.35;22.77;;;;;;;9.34;100.00;102440.53;6540234;22;20008;-80
2022/08/08 04:16:28;;;;;;;28.50;21.80;;;;;;;9.21;100.00;102432.47;6513983;22;20023;-80
2022/08/08 04:18:59;;;;;;;28.85;21.55;;;;;;;9.33;100.00;102437.03;6540873;22;20007;-80
2022/08/08 04:21:30;;;;;;;26.52;21.10;;;;;;;9.41;100.00;102439.19;6540759;22;20351;-81
2022/08/08 04:24:02;;;;;;;28.45;21.77;;;;;;;9.27;100.00;102430.28;6540985;22;19996;-81
2022/08/08 04:26:33;;;;;;;23.90;20.23;;;;;;;9.50;100.00;102440.44;6541223;22;20315;-80
2022/08/08 04:29:04;;;;;;;24.33;20.83;;;;;;;9.33;100.00;102441.50;6541156;22;20296;-81
2022/08/08 04:31:36;;;;;;;31.17;23.55;;;;;;;9.51;100.00;102436.81;6514481;22;20031;-80
2022/08/08 04:34:07;;;;;;;33.10;22.42;;;;;;;9.67;100.00;102440.22;6540812;22;20043;-81
2022/08/08 04:36:38;;;;;;;21.98;19.55;;;;;;;9.58;100.00;102441.66;6514498;22;20000;-81
2022/08/08 04:39:10;;;;;;;27.67;22.52;;;;;;;9.74;100.00;102443.34;6541014;22;20449;-81
2022/08/08 04:41:41;;;;;;;32.55;24.38;;;;;;;9.82;100.00;102447.25;6540968;22;20005;-81
2022/08/08 04:44:13;;;;;;;29.73;21.65;;;;;;;9.18;100.00;102453.94;6540364;22;20032;-81
2022/08/08 04:46:44;;;;;;;22.92;20.02;;;;;;;9.26;100.00;102454.34;6540972;22;19997;-81
2022/08/08 04:49:16;;;;;;;26.27;21.63;;;;;;;9.53;100.00;102459.72;6514220;22;20008;-80
2022/08/08 04:51:47;;;;;;;26.50;21.50;;;;;;;9.70;100.00;102472.00;6514488;22;20031;-80
2022/08/08 04:54:18;;;;;;;27.77;21.58;;;;;;;9.78;100.00;102464.38;6513381;22;20023;-81
2022/08/08 04:56:50;;;;;;;29.10;21.27;;;;;;;9.91;100.00;102474.25;6514016;22;19998;-81
2022/08/08 04:59:21;;;;;;;35.10;24.02;;;;;;;9.96;100.00;102469.50;6540943;22;20058;-81
2022/08/08 05:01:52;;;;;;;29.30;22.38;;;;;;;9.92;100.00;102473.28;6514506;22;20004;-81
2022/08/08 05:04:24;;;;;;;35.85;26.02;;;;;;;10.09;100.00;102481.06;6513985;22;20065;-80
2022/08/08 05:06:55;;;;;;;34.70;23.38;;;;;;;10.20;100.00;102478.56;6540962;22;20035;-81
2022/08/08 05:09:26;;;;;;;32.22;24.02;;;;;;;10.23;100.00;102477.50;6514151;22;20080;-81
2022/08/08 05:11:58;;;;;;;43.03;28.25;;;;;;;10.34;100.00;102480.38;6514177;22;20009;-81
2022/08/08 05:14:29;;;;;;;36.10;26.67;;;;;;;10.33;100.00;102483.13;6514153;22;20382;-81
2022/08/08 05:17:03;;;;;;;52.63;28.55;;;;;;;10.45;100.00;102487.66;6541060;22;20670;-80
2022/08/08 05:19:36;;;;;;;36.45;28.23;;;;;;;10.67;100.00;102491.56;6540868;22;19993;-81
2022/08/08 05:22:09;;;;;;;43.13;28.33;;;;;;;10.79;100.00;102493.41;6541045;22;19996;-80
2022/08/08 05:24:40;;;;;;;37.85;27.95;;;;;;;10.73;100.00;102492.00;6541256;22;20423;-80
2022/08/08 05:27:11;;;;;;;40.88;28.05;;;;;;;11.04;100.00;102492.56;6541407;22;20205;-81
2022/08/08 05:29:43;;;;;;;43.42;28.27;;;;;;;11.41;100.00;102497.19;6513560;22;19996;-80
2022/08/08 05:32:15;;;;;;;39.05;28.35;;;;;;;11.83;100.00;102492.44;6540657;22;20059;-80
2022/08/08 05:34:51;;;;;;;32.55;26.50;;;;;;;11.89;100.00;102489.31;6513674;22;20087;-80
2022/08/08 05:37:26;;;;;;;31.90;23.88;;;;;;;12.23;100.00;102493.09;6540728;22;20438;-80
2022/08/08 05:40:03;;;;;;;31.15;24.20;;;;;;;12.37;100.00;102489.38;6540745;22;20031;-81
2022/08/08 05:42:41;;;;;;;29.23;21.55;;;;;;;12.92;100.00;102496.91;6513421;22;20003;-80
2022/08/08 05:45:13;;;;;;;25.05;19.88;;;;;;;13.22;100.00;102493.69;6513253;22;20009;-80
2022/08/08 05:47:45;;;;;;;20.13;15.95;;;;;;;13.57;100.00;102488.25;6541087;22;20083;-82
2022/08/08 05:50:17;;;;;;;18.52;13.48;;;;;;;14.18;100.00;102503.06;6514040;22;20316;-81
2022/08/08 05:52:49;;;;;;;15.27;13.18;;;;;;;14.37;100.00;102502.38;6540583;22;20066;-80
2022/08/08 05:55:21;;;;;;;14.88;12.75;;;;;;;14.65;100.00;102503.66;6540308;22;19992;-80
2022/08/08 05:57:52;;;;;;;17.98;12.73;;;;;;;14.79;100.00;102504.34;6514120;22;20004;-80
2022/08/08 06:00:29;;;;;;;14.50;11.75;;;;;;;15.15;100.00;102500.34;6540377;22;20004;-80
2022/08/08 06:03:10;;;;;;;12.13;10.32;;;;;;;15.51;100.00;102500.81;6513426;22;19996;-80
2022/08/08 06:05:53;;;;;;;14.90;11.10;;;;;;;15.55;100.00;102496.00;6539981;22;20003;-81
2022/08/08 06:08:35;;;;;;;11.75;10.30;;;;;;;15.75;100.00;102495.16;6539951;22;20019;-81
2022/08/08 06:11:07;;;;;;;11.38;9.70;;;;;;;15.93;100.00;102500.72;6539527;22;20012;-80
2022/08/08 06:13:38;;;;;;;12.05;9.07;;;;;;;16.33;100.00;102497.09;6539535;22;19996;-80
2022/08/08 06:16:12;;;;;;;10.07;9.00;;;;;;;16.76;100.00;102489.59;6513862;22;19992;-81
2022/08/08 06:18:43;;;;;;;8.90;8.00;;;;;;;16.90;100.00;102497.28;6540774;22;19997;-81
2022/08/08 06:21:15;;;;;;;9.98;8.40;;;;;;;17.05;100.00;102491.44;6514028;22;20030;-81
2022/08/08 06:23:47;;;;;;;10.25;8.10;;;;;;;17.27;100.00;102487.53;6540634;22;20004;-81
2022/08/08 06:26:18;;;;;;;12.95;9.30;;;;;;;17.31;100.00;102497.91;6540606;22;19992;-80
2022/08/08 06:29:00;;;;;;;10.70;7.55;;;;;;;17.77;100.00;102496.13;6540540;22;20075;-80
2022/08/08 06:31:35;;;;;;;10.52;8.68;;;;;;;18.01;100.00;102496.63;6513168;22;20008;-80
2022/08/08 06:34:16;;;;;;;8.77;7.88;;;;;;;18.56;100.00;102510.00;6540548;22;20004;-80
2022/08/08 06:36:49;;;;;;;9.13;8.18;;;;;;;18.63;100.00;102511.09;6540755;22;20004;-80
2022/08/08 06:39:23;;;;;;;8.60;7.03;;;;;;;19.09;100.00;102505.56;6540718;22;20051;-80
2022/08/08 06:41:57;;;;;;;8.73;6.97;;;;;;;18.99;100.00;102504.84;6540189;22;20083;-80
2022/08/08 06:44:29;;;;;;;12.32;7.43;;;;;;;19.28;100.00;102490.97;6540197;22;20011;-80
2022/08/08 06:47:00;;;;;;;8.57;6.05;;;;;;;20.00;100.00;102506.91;6540037;22;20048;-80
2022/08/08 06:49:32;;;;;;;10.25;6.82;;;;;;;19.95;100.00;102493.00;6513021;22;20002;-80
2022/08/08 06:52:05;;;;;;;8.73;6.47;;;;;;;20.32;100.00;102505.28;6513525;22;20430;-80
2022/08/08 06:54:36;;;;;;;9.38;6.43;;;;;;;20.32;100.00;102514.28;6539710;22;19997;-80
2022/08/08 06:57:09;;;;;;;7.40;5.63;;;;;;;20.90;100.00;102506.22;6540289;22;19997;-80
2022/08/08 06:59:40;;;;;;;9.40;5.75;;;;;;;21.13;100.00;102503.63;6539187;22;19996;-80
2022/08/08 07:02:26;;;;;;;8.35;5.55;;;;;;;21.39;100.00;102500.69;6512962;22;19999;-80
2022/08/08 07:05:08;;;;;;;9.18;6.15;;;;;;;21.67;100.00;102508.44;6540325;22;20001;-80
2022/08/08 07:07:49;;;;;;;6.50;5.30;;;;;;;21.58;100.00;102506.75;6540636;22;20339;-80
2022/08/08 07:10:23;;;;;;;7.10;4.95;;;;;;;22.35;100.00;102509.63;6541272;22;20046;-80
2022/08/08 07:13:04;;;;;;;5.97;5.40;;;;;;;22.49;100.00;102505.25;6541237;22;20008;-79
2022/08/08 07:15:56;;;;;;;9.90;5.28;;;;;;;22.76;100.00;102508.47;6541017;22;19999;-79
2022/08/08 07:18:41;;;;;;;9.52;4.55;;;;;;;23.11;100.00;102514.31;6514481;22;19996;-79
2022/08/08 07:21:17;;;;;;;6.38;5.03;;;;;;;23.30;100.00;102512.91;6542078;22;19992;-79
2022/08/08 07:23:59;;;;;;;6.47;4.00;;;;;;;23.97;100.00;102520.13;6541647;22;20118;-79
2022/08/08 07:26:33;;;;;;;6.63;3.90;;;;;;;24.09;100.00;102518.59;6541129;22;20393;-79
2022/08/08 07:29:04;;;;;;;5.28;3.50;;;;;;;24.69;100.00;102519.22;6514980;22;19999;-80
2022/08/08 07:31:36;;;;;;;7.65;3.65;;;;;;;24.72;100.00;102512.56;6514197;22;20370;-79
2022/08/08 07:34:09;;;;;;;5.18;3.28;;;;;;;25.59;100.00;102508.53;6514710;22;19992;-80
2022/08/08 07:36:42;;;;;;;7.18;3.13;;;;;;;26.36;100.00;102520.19;6541060;22;20062;-79
2022/08/08 07:39:17;;;;;;;7.22;3.05;;;;;;;26.05;100.00;102523.47;6514821;22;20023;-79
2022/08/08 07:41:49;;;;;;;7.73;2.67;;;;;;;26.08;100.00;102517.59;6541322;22;20411;-79
2022/08/08 07:44:23;;;;;;;5.07;2.10;;;;;;;26.28;100.00;102522.28;6541591;22;20508;-79
2022/08/08 07:46:54;;;;;;;4.70;2.30;;;;;;;26.74;100.00;102524.28;6541644;22;20682;-79
2022/08/08 07:49:26;;;;;;;5.18;2.30;;;;;;;26.76;100.00;102517.53;6515114;22;20099;-79
2022/08/08 07:51:59;;;;;;;6.65;2.40;;;;;;;26.92;100.00;102529.09;6515667;22;20012;-79
2022/08/08 07:54:40;;;;;;;7.05;2.42;;;;;;;26.71;100.00;102520.03;6543844;22;19996;-79
2022/08/08 07:57:42;;;;;;;4.07;2.20;;;;;;;27.73;100.00;102526.03;6516662;22;19996;-79
2022/08/08 08:00:15;;;;;;;5.78;2.08;;;;;;;27.42;99.06;102532.25;6542054;22;19997;-79
2022/08/08 08:02:54;;;;;;;4.25;1.77;;;;;;;27.64;98.02;102534.69;6541710;22;20334;-79
2022/08/08 08:05:28;;;;;;;4.03;1.60;;;;;;;27.26;95.60;102536.25;6541190;22;20004;-80
2022/08/08 08:08:12;;;;;;;4.05;1.80;;;;;;;28.42;92.60;102531.81;6541780;22;20388;-80
2022/08/08 08:10:48;;;;;;;5.38;2.05;;;;;;;28.27;88.65;102531.25;6541700;22;19996;-79
2022/08/08 08:13:39;;;;;;;3.83;2.17;;;;;;;28.77;87.53;102530.50;6513847;22;20004;-79
2022/08/08 08:16:18;;;;;;;5.88;1.80;;;;;;;29.28;84.57;102539.56;6514618;22;20423;-79
2022/08/08 08:19:01;;;;;;;7.32;2.20;;;;;;;29.70;77.90;102532.34;6513887;22;20008;-78
2022/08/08 08:21:44;;;;;;;5.55;1.90;;;;;;;30.49;74.04;102537.84;6540919;22;20087;-79
2022/08/08 08:24:16;;;;;;;3.85;1.50;;;;;;;30.81;63.53;102550.50;6540987;22;20387;-79
2022/08/08 08:26:47;;;;;;;11.27;2.80;;;;;;;30.42;61.80;102544.53;6541479;22;20019;-79
2022/08/08 08:29:18;;;;;;;5.90;1.60;;;;;;;31.26;55.81;102542.50;6541317;22;20270;-79
2022/08/08 08:31:50;;;;;;;5.07;2.20;;;;;;;30.77;54.35;102541.00;6514196;22;20220;-79
2022/08/08 08:34:21;;;;;;;7.03;1.60;;;;;;;31.07;53.79;102546.47;6514238;22;20419;-79
2022/08/08 08:36:52;;;;;;;5.72;1.55;;;;;;;31.65;53.89;102553.84;6541297;22;20019;-79
2022/08/08 08:39:24;;;;;;;3.72;1.80;;;;;;;31.42;50.86;102545.59;6540960;22;19993;-79
2022/08/08 08:41:57;;;;;;;4.30;1.48;;;;;;;32.22;50.40;102549.47;6514486;22;20307;-79
2022/08/08 08:44:28;;;;;;;6.20;2.00;;;;;;;31.99;46.35;102553.13;6540711;22;20016;-79
2022/08/08 08:47:01;;;;;;;3.58;1.45;;;;;;;32.47;46.00;102551.00;6541929;22;20000;-79
2022/08/08 08:49:33;;;;;;;4.13;1.42;;;;;;;32.78;42.97;102557.94;6513970;22;20005;-79
2022/08/08 08:52:06;;;;;;;3.60;1.20;;;;;;;32.38;42.34;102543.16;6541491;22;20000;-79
2022/08/08 08:54:38;;;;;;;4.97;1.40;;;;;;;32.53;42.38;102555.56;6540978;22;19992;-79
2022/08/08 08:57:09;;;;;;;5.25;1.50;;;;;;;33.73;40.34;102557.94;6541878;22;20449;-80
2022/08/08 08:59:43;;;;;;;4.47;1.75;;;;;;;32.83;40.03;102555.25;6514306;22;20417;-79
2022/08/08 09:02:23;;;;;;;3.40;1.15;;;;;;;33.89;39.38;102554.28;6513968;22;19999;-79
2022/08/08 09:04:58;;;;;;;3.20;1.17;;;;;;;33.91;36.36;102556.81;6541049;22;20000;-79
2022/08/08 09:07:33;;;;;;;5.93;1.50;;;;;;;35.01;35.95;102544.53;6540887;22;19997;-80
2022/08/08 09:10:04;;;;;;;;;;;;;;;37.19;33.12;102552.03;6541434;22;20322;-80
2022/08/08 09:12:37;;;;;;;4.70;1.05;;;;;;;35.50;33.24;102555.41;6540888;22;19907;-80
2022/08/08 09:15:09;;;;;;;2.88;0.85;;;;;;;35.38;32.61;102555.59;6513823;22;20004;-80
2022/08/08 09:17:41;;;;;;;2.53;0.95;;;;;;;35.49;31.13;102550.94;6541158;22;19999;-80
2022/08/08 09:20:13;;;;;;;2.50;0.93;;;;;;;34.81;32.11;102548.84;6514161;22;20000;-80
2022/08/08 09:22:45;;;;;;;2.88;0.93;;;;;;;35.28;32.39;102551.94;6540532;22;19992;-80
2022/08/08 09:25:18;;;;;;;4.80;1.23;;;;;;;35.74;31.21;102552.16;6540820;22;20085;-80
2022/08/08 09:27:51;;;;;;;2.13;0.85;;;;;;;36.25;30.57;102548.72;6541145;22;20406;-80
2022/08/08 09:30:24;;;;;;;4.03;1.10;;;;;;;37.20;29.95;102552.84;6540128;22;20092;-80
2022/08/08 09:32:56;;;;;;;2.97;1.00;;;;;;;36.88;29.60;102552.06;6540235;22;20016;-79
2022/08/08 09:35:30;;;;;;;3.95;1.20;;;;;;;37.15;28.83;102556.47;6540916;22;20000;-80
2022/08/08 09:38:03;;;;;;;4.38;0.90;;;;;;;37.05;29.72;102553.72;6540874;22;19992;-79
2022/08/08 09:40:35;;;;;;;2.35;0.82;;;;;;;37.18;28.38;102553.13;6540835;22;19996;-80
2022/08/08 09:43:16;;;;;;;4.53;1.33;;;;;;;37.51;28.67;102558.31;6540168;22;20339;-80
2022/08/08 09:45:54;;;;;;;2.47;0.88;;;;;;;38.40;27.99;102550.03;6541211;22;20000;-80
2022/08/08 09:48:30;;;;;;;6.00;1.00;;;;;;;37.49;28.66;102547.47;6540452;22;20418;-80
2022/08/08 09:51:02;;;;;;;4.70;1.10;;;;;;;37.96;28.12;102551.72;6513147;22;19993;-80
2022/08/08 09:53:41;;;;;;;3.22;1.10;;;;;;;38.28;27.85;102544.00;6514132;22;20004;-80
2022/08/08 09:56:14;;;;;;;5.28;1.10;;;;;;;38.73;27.10;102548.38;6541048;22;20000;-80
2022/08/08 09:59:04;;;;;;;2.08;0.73;;;;;;;40.35;25.41;102550.53;6541553;22;20046;-80
2022/08/08 10:01:37;;;;;;;3.20;0.85;;;;;;;37.63;27.53;102536.56;6513395;22;20040;-80
2022/08/08 10:04:13;;;;;;;3.50;1.00;;;;;;;38.21;27.65;102533.19;6540915;22;20059;-80
2022/08/08 10:06:46;;;;;;;5.07;0.77;;;;;;;38.45;26.79;102536.06;6540665;22;20004;-80
2022/08/08 10:09:32;;;;;;;4.00;1.00;;;;;;;37.17;28.68;102540.34;6540524;22;19996;-80
2022/08/08 10:12:04;;;;;;;2.42;0.82;;;;;;;35.96;30.30;102554.75;6513182;22;20035;-80
2022/08/08 10:14:37;;;;;;;4.22;1.60;;;;;;;35.95;29.31;102553.06;6540655;22;21249;-80
2022/08/08 10:17:09;;;;;;;3.28;1.10;;;;;;;35.50;29.94;102547.06;6540769;22;19993;-80
2022/08/08 10:19:41;;;;;;;3.03;1.00;;;;;;;33.69;32.49;102542.97;6513483;22;19999;-80
2022/08/08 10:22:14;;;;;;;6.85;1.20;;;;;;;35.02;31.18;102538.72;6513403;22;20000;-79
2022/08/08 10:24:47;;;;;;;1.45;0.68;;;;;;;37.19;27.65;102537.31;6540035;22;20003;-80
2022/08/08 10:27:27;;;;;;;2.03;0.80;;;;;;;39.36;25.71;102540.19;6540249;22;20055;-80
2022/08/08 10:30:00;;;;;;;2.70;1.00;;;;;;;39.93;24.84;102538.34;6540027;22;20016;-80
2022/08/08 10:32:34;;;;;;;1.80;1.00;;;;;;;40.18;24.40;102536.28;6513642;22;20457;-80
2022/08/08 10:35:15;;;;;;;2.55;1.17;;;;;;;40.62;23.86;102532.19;6540232;22;20000;-80
2022/08/08 10:37:52;;;;;;;4.80;0.93;;;;;;;41.78;23.69;102543.34;6539998;22;20043;-80
2022/08/08 10:40:26;;;;;;;2.17;0.73;;;;;;;41.71;22.01;102535.38;6513049;22;19992;-80
2022/08/08 10:43:05;;;;;;;2.13;0.93;;;;;;;42.55;22.24;102532.25;6541965;22;20000;-80
2022/08/08 10:45:49;;;;;;;2.20;0.68;;;;;;;41.79;21.12;102530.16;6541410;22;20195;-80
2022/08/08 10:48:38;;;;;;;2.28;0.77;;;;;;;40.80;22.82;102533.31;6541422;22;19992;-80
2022/08/08 10:51:11;;;;;;;3.05;0.88;;;;;;;36.65;25.77;102525.66;6514240;22;19996;-80
2022/08/08 10:53:47;;;;;;;3.35;0.80;;;;;;;35.86;28.12;102538.88;6541873;22;19996;-79
2022/08/08 10:56:18;;;;;;;2.85;0.88;;;;;;;36.66;27.80;102532.03;6541899;22;20119;-80
2022/08/08 10:58:56;;;;;;;3.03;0.63;;;;;;;39.45;24.66;102533.66;6541760;22;20292;-80
2022/08/08 11:01:29;;;;;;;1.83;0.75;;;;;;;41.01;22.68;102534.56;6514255;22;20019;-80
2022/08/08 11:04:00;;;;;;;4.32;1.02;;;;;;;42.72;21.19;102523.09;6542155;22;20071;-79
2022/08/08 11:06:33;;;;;;;2.08;0.70;;;;;;;41.39;21.57;102519.53;6542094;22;20056;-80
2022/08/08 11:09:07;;;;;;;3.05;0.75;;;;;;;41.69;22.16;102522.81;6541180;22;19997;-80
2022/08/08 11:11:41;;;;;;;2.37;0.63;;;;;;;40.43;22.21;102529.44;6515106;22;20103;-80
2022/08/08 11:14:13;;;;;;;1.88;0.65;;;;;;;38.99;23.76;102519.38;6541831;22;19992;-79
2022/08/08 11:16:45;;;;;;;1.90;0.70;;;;;;;37.49;25.18;102513.25;6542381;22;19999;-80
2022/08/08 11:19:17;;;;;;;4.43;0.60;;;;;;;36.83;25.82;102517.88;6541834;22;20004;-80
2022/08/08 11:21:50;;;;;;;1.67;0.50;;;;;;;36.52;26.59;102515.94;6514595;22;20066;-80
2022/08/08 11:24:26;;;;;;;5.00;1.17;;;;;;;36.74;26.65;102514.00;6541292;22;20307;-80
2022/08/08 11:27:01;;;;;;;2.38;0.70;;;;;;;35.96;27.53;102516.72;6542052;22;20486;-80
2022/08/08 11:29:34;;;;;;;1.30;0.60;;;;;;;35.53;27.51;102506.84;6541389;22;20107;-80
2022/08/08 11:32:06;;;;;;;1.73;0.68;;;;;;;35.03;28.31;102498.81;6542173;22;20297;-80
2022/08/08 11:34:41;;;;;;;1.42;0.57;;;;;;;34.70;28.90;102505.53;6514498;22;20007;-80
2022/08/08 11:37:12;;;;;;;3.58;0.70;;;;;;;34.47;30.22;102502.00;6541836;22;20004;-80
2022/08/08 11:39:43;;;;;;;3.47;0.70;;;;;;;33.68;30.62;102502.56;6541606;22;20326;-80
2022/08/08 11:42:16;;;;;;;2.28;0.82;;;;;;;33.10;31.67;102500.13;6541881;22;19996;-80
2022/08/08 11:44:48;;;;;;;2.05;0.55;;;;;;;33.52;31.69;102499.59;6541350;22;20434;-79
2022/08/08 11:47:22;;;;;;;0.90;0.47;;;;;;;32.35;33.35;102505.00;6541895;22;20000;-80
2022/08/08 11:49:56;;;;;;;1.17;0.60;;;;;;;32.97;32.29;102501.31;6541255;22;20015;-79
2022/08/08 11:52:28;;;;;;;6.38;0.75;;;;;;;32.65;32.25;102495.59;6541340;22;20008;-80
2022/08/08 11:54:59;;;;;;;1.58;0.50;;;;;;;34.56;30.41;102491.28;6541519;22;19997;-80
2022/08/08 11:57:32;;;;;;;1.63;0.73;;;;;;;35.07;29.20;102493.56;6542030;22;20007;-80
2022/08/08 12:00:08;;;;;;;2.03;0.68;;;;;;;37.09;26.70;102493.63;6541317;22;20000;-80
2022/08/08 12:02:47;;;;;;;5.10;0.60;;;;;;;37.47;26.01;102488.50;6540627;22;19996;-80
2022/08/08 12:05:30;;;;;;;2.08;0.60;;;;;;;35.88;26.13;102496.97;6540985;22;19995;-80
2022/08/08 12:08:02;;;;;;;2.20;0.45;;;;;;;33.61;27.96;102490.81;6541057;22;20000;-80